AirNav   Air Wisconsin pilot careers
 
 869 users online  

KNUQ Moffett Federal Airfield
Mountain View, California, USA

GOING TO MOUNTAIN VIEW?


FAA INFORMATION EFFECTIVE 04 JANUARY 2018

Location

FAA Identifier: NUQ
Lat/Long: 37-24-58.1000N / 122-02-56.9000W
37-24.968333N / 122-02.948333W
37.4161389 / -122.0491389
(estimated)
Elevation: 36.6 ft. / 11 m (estimated)
Variation: 16E (1980)
From city: 3 miles N of MOUNTAIN VIEW, CA
Time zone: UTC -8 (UTC -7 during Daylight Saving Time)
Zip code: 94043

Airport Operations

Airport use: Private use. Permission required prior to landing
Control tower: yes
ARTCC: OAKLAND CENTER
FSS: OAKLAND FLIGHT SERVICE STATION
FSS-OAKLAND OAK-NOTAM NUQ
NOTAMs facility: NUQ (NOTAM-D service available)
Attendance: CONTINUOUS
Pattern altitude: 1004(968) RWY 14L/R, 1504(1468) RWY 32L/R. MIN ALT 75' AGL OVER HWY AT SOUTH BDRY. TRAN PRACTICE APCH/TGL RQRS ARPT MGR APVL.
Segmented circle: yes
Lights: WHEN TWR CLSD, ACTIVATE-HIRL RWY 14L-32R AND ALSF-1 RWY 32R-CTAF.
Beacon: white-green (lighted land airport)
Operates sunset to sunrise.

Airport Communications

CTAF: 119.55
ATIS: 124.175 283.0
WX ASOS: 124.175 or 283.0 (650-604-1529)
MOFFETT GROUND: 121.85 278.95 [1500-0700Z++]
MOFFETT TOWER: 119.55 259.65 [1500-0700Z++]
NORCAL APPROACH: 120.1 135.2 133.95 134.5
NORCAL DEPARTURE: 120.1
CLEARANCE DELIVERY: 296.75
ALCP: 349.4
EMERG: 121.5 243.0
IC: 120.1
PMSV: 341.3
RDR: 300.4 325.2 328.4 363.6
SFA: 134.1
WX ASOS at SJC (7 nm SE): PHONE 408-969-0838
WX AWOS-3P at SQL (11 nm NW): 125.9 (650-593-0613)
WX ASOS at HWD (15 nm N): PHONE 510-786-3052
WX ASOS at SFO (20 nm NW): PHONE 650-872-0246
WX ASOS at LVK (20 nm NE): PHONE 925-606-5412
  • ATCT OPER BY AIR NATIONAL GUARD.
  • COMMUNICATIONS: ANG - OPR 1400-2330Z++. 390.9 5711 REMARKS: SQ OPS, CALL MOFFETT RESCUE. (5711 USB).
  • ASR-9 MAG VAR 15E.

Nearby radio navigation aids

VOR radial/distance  VOR name  Freq  Var
SJCr281/5.6SAN JOSE VOR/DME114.1016E
OSIr066/11.2WOODSIDE VOR/DME113.9017E
SFOr111/19.7SAN FRANCISCO VOR/DME115.8017E
OAKr139/20.4OAKLAND VOR/DME116.8017E
SAUr123/34.7SAUSALITO VOR/DME116.2017E
CCRr163/37.7CONCORD VOR/DME117.0017E

 
NDB name  Hdg/Dist  Freq  Var  ID
TRACY225/33.220315ETCY - -.-. -.--

Airport Services

Fuel available: A
JET A AVAIL 24 HRS.
Airframe service: NONE
Powerplant service: NONE
Bottled oxygen: NONE
Bulk oxygen: NONE

Runway Information

Runway 14L/32R

Dimensions: 9197 x 200 ft. / 2803 x 61 m
Surface: concrete
Weight bearing capacity: 
PCN 63 /R/B/W/T
Runway edge lights: high intensity
RUNWAY 14L  RUNWAY 32R
Latitude: 37-25.735270N37-24.332918N
Longitude: 122-03.276270W122-02.555747W
Elevation: 5.3 ft.31.3 ft.
Traffic pattern: leftleft
Runway heading: 141 magnetic, 157 true321 magnetic, 337 true
Markings: precision, in good conditionprecision, in good condition
Visual slope indicator: 4-light PAPI on left (3.00 degrees glide path)4-light PAPI on left (3.00 degrees glide path)
Approach lights: ALSF1: standard 2,400 foot high intensity approach lighting system with centerline sequenced flashers (category I)
Centerline lights: yesyes
Touchdown point: yes, lightedyes, lighted
Instrument approach: LOCALIZERLOC/GS

Runway 14R/32L

Dimensions: 8122 x 200 ft. / 2476 x 61 m
Surface: asphalt
Weight bearing capacity: 
PCN 33 /R/B/W/T
Runway edge lights: high intensity
RUNWAY 14R  RUNWAY 32L
Latitude: 37-25.513297N37-24.274837N
Longitude: 122-03.301708W122-02.665475W
Elevation: 4.0 ft.36.1 ft.
Traffic pattern: leftleft
Runway heading: 141 magnetic, 157 true321 magnetic, 337 true
Displaced threshold: no602 ft.
Markings: nonprecision, in good conditionnonprecision, in good condition
Touchdown point: yes, no lightsyes, no lights

Airport Ownership and Management from official FAA records

Ownership: Publicly-owned
LESSEE: PLANETARY VENTURES
Owner: NASA AMES RESEARCH CENTER
AIRFIELD MGT OFS M/S 158-01
MOFFETT FIELD, CA 94035-1000
Phone 650-604-0685
Manager: CARL HONAKER
158 CODY RD, ROOM 103
MOFFETT FIELD, CA 94035-1000
Phone 650-386-0687
ATC MGR PHONE: 650-603-9211

Airport Operational Statistics

Aircraft based on the field: 50
Single engine airplanes: 10
Multi engine airplanes: 25
Helicopters: 15
    

Additional Remarks

BEARING STRENGTH RY 14L: S64 T110 ST144 SBTT410 TDT528 TRT390).
CSTMS/AG/IMG - CSTMS, AG, IMG AVBL ONLY BY PN MON-FRI 1700-0100Z++ EXC HOL.
CAUTION - POSSIBLE STRONG UPDRAFT VCNTY NASA/AMES WIND TUNNEL LCTD W SIDE OF AFLD. BIRD HAZ.
NS ABTMT - NO JET DEP RWY 14L/R BTN HRS OF 0700-1300Z++.
TRAN ALERT - LTD GND SUPPORT EQPT AVBL. LTD TRML SVC AVBL.
BEARING STRENGTH RY 32R: S82 T142 ST175 TT300 DDT609, TDT814.
NS ABTMT - NO JET DEP RWY 14L/R BTN HRS OF 0700-1300Z++.
CAUTION: AIRPORT SIGNAGE UNAVBL TO INCL RWY, TWY, INST, LOC, DIREC, DESTN, AND INFO SIGNS.
BIRD HAZARD LIKELY TO BE HIGHEST FROM OCT TO MAR (PHASE III) AND LOWER FROM APR TO SEP (PHASE I).
JET A++ FUEL AVBL. JP-8 NOT AVBL.
JASU - (AM32A-60) (AM32A-86).
RSTD - TWY D CLSD DRG NON-DALGT HRS.
FOR CD WHEN ATCT IS CLSD CTC NORCAL APCH AT 916-361-3748.
MISC - UPDATE ETA +15 MINS AT LEAST 2 HRS PRIOR ARR. TWR FREQ MONITOR BY NASA FIRE/SECURITY.
MILITARY REMARKS - ANG OPR MON-THU 1330-2400Z++. OPS DSN 359-9357, C650-603-9357. COMD POST DSN 359-9333, COMD POST C650-603-9333.
MILITARY REMARKS - PRKG ON ANG RAMP IS OFFL BUS ONLY AND PRE-COORD WITH 129 OSF/OSA AT DSN 359-9357 OR 650-603-9357 RQR.
MILITARY REMARKS - LTD MAINT AND FUEL SUPPORT FOR C130 AND H60 ACFT NO PAX AND NO TRAN ALERT SVC
MILITARY SERVICES - FUEL AVBL MON-FRI 1700-0200Z++.
FLUID - SP LOX - LTD AVBL.
OIL - O-117-133-148-156.
MILITARY REMARKS - SEE FLIP AP/1 SUPPLEMENTARY ARPT RMK.
RSTD - PPR ALFD OPS OPR 24 HRS, TRAN ALERT SVC 24 HRS, C650-386-0677. RECOMMEND SID, EXP DELAY FOR RADAR VECTORS.

Instrument Procedures

NOTE: All procedures below are presented as PDF files. If you need a reader for these files, you should download the free Adobe Reader.

NOT FOR NAVIGATION. Please procure official charts for flight.
FAA instrument procedures published for use between 4 January 2018 at 0901Z and 1 February 2018 at 0900Z.

 
STARs - Standard Terminal Arrivals
POINT REYES THREE   download (229KB)
POINT REYES THREE   download (229KB)
 
IAPs - Instrument Approach Procedures
ILS OR LOC/DME RWY 32R   download (421KB)
LOC/DME RWY 14L   download (290KB)
TACAN RWY 32L   download (364KB)
TACAN RWY 32R   download (390KB)
 
Departure Procedures
HOOKS TWO **CHANGED**   download (140KB)
SOUTHLAND TWO **CHANGED**   download (233KB)
WOODSIDE TWO **CHANGED**   download (150KB)
NOTE: Special Take-Off Minimums/Departure Procedures apply   download (128KB)

Other nearby airports with instrument procedures:

KPAO - Palo Alto Airport (4 nm NW)
KSJC - Norman Y Mineta San Jose International Airport (7 nm SE)
KSQL - San Carlos Airport (11 nm NW)
KRHV - Reid-Hillview Airport of Santa Clara County (12 nm SE)
KHWD - Hayward Executive Airport (15 nm N)
KSFO - San Francisco International Airport (20 nm NW)
KLVK - Livermore Municipal Airport (20 nm NE)
 
Loc | Ops | Rwys | IFR | FBO | Links
Com | Nav | Svcs | Stats | Notes


 
Area around KNUQ (Moffett Federal Airfield)
 
Road maps at: MapQuest Bing Google
 
Aerial photo
WARNING: Photo may not be current or correct
Aerial photo of KNUQ (Moffett Federal Airfield)
Photo courtesy of focalflight.com
Photo taken 10-Apr-2015
looking south.

Do you have a better or more recent aerial photo of Moffett Federal Airfield that you would like to share? If so, please send us your photo.

 
Sectional chart

 
Airport diagram
Diagram of KNUQ (Moffett Federal Airfield)
Download PDF
of official airport diagram from the FAA

 
Airport distance calculator
Flying to Moffett Federal Airfield? Find the distance to fly.

From to KNUQ

Sunrise and sunset
Times for 19-Jan-2018
 Local
(UTC-8)
 Zulu
(UTC)
Morning civil twilight06:5314:53
Sunrise07:2115:21
Sunset17:1701:17
Evening civil twilight17:4501:45

Current date and time
Zulu (UTC)  20-Jan-2018 01:58:33
Local (UTC-8)  19-Jan-2018 17:58:33
 
METAR
KNUQ 200056Z 31006KT 10SM CLR 11/04 A3008 RMK AO2 SLP187 T01060044
KPAO 
4nm NW 
200147Z 29007KT 10SM FEW040 10/06 A3008
KSJC 
7nm SE 
200153Z 30009KT 10SM FEW024 SCT032 SCT085 11/05 A3007 RMK AO2 SLP182 TCU DSNT N-NE T01110050
KSQL 
11nm NW 
200147Z 26006KT 10SM FEW030 SCT150 10/05 A3008
KRHV 
13nm SE 
200147Z 34005KT 10SM SCT030 11/05 A3005
KHWD 
15nm N 
200154Z 30007KT 10SM CLR 11/04 A3007 RMK AO2 SLP193 T01060039
KOAK 
19nm NW 
200153Z 30011KT 10SM FEW025 FEW100 SCT180 11/06 A3008 RMK AO2 SLP185 T01060061
KSFO 
19nm NW 
200056Z 28014KT 10SM FEW030 BKN180 12/04 A3007 RMK AO2 SLP182 T01170039
TAF
KSJC 
7nm SE 
191726Z 1918/2018 VRB04KT P6SM FEW015 SCT030 SCT050 FM192000 30008KT P6SM VCSH FEW030 FM192300 31010KT P6SM VCSH FEW030 FM200400 31007KT P6SM FEW030 SCT050 FM200800 30004KT P6SM FEW030 FEW150
KOAK 
19nm NW 
191726Z 1918/2024 25005KT P6SM VCSH FEW020 SCT050 SCT200 FM192000 30007KT P6SM -SHRA SCT020 BKN050 BKN120 FM200000 29010KT P6SM VCSH FEW025 SCT090 BKN120 FM200400 32007KT P6SM FEW030 SCT050 SCT150 FM200900 33005KT P6SM FEW010 SCT150 FM201800 28008KT P6SM FEW010 SCT200
KSFO 
19nm NW 
192057Z 1921/2024 34006KT P6SM VCSH FEW020 SCT040 BKN050 TEMPO 1921/1923 -SHRA BKN025 FM192300 29008KT P6SM FEW020 SCT040 BKN050 FM200200 29011KT P6SM FEW035 SCT050 FM201000 30009KT P6SM FEW012 SCT050
NOTAMs
Click for the latest NOTAMs
NOTAMs are issued by the DoD/FAA and will open in a separate window not controlled by AirNav.

 

 
 

FBO, Fuel Providers, and Aircraft Ground Support

  
 Business Name 
 
 Contact 
 
 Services / Description 
 
Fuel Prices
 
Comments
  
 AvPORTS Moffett Field
650-386-0677
[web site]
[email]
Moffett Field is under new management and open for business. Under an agreement with NASA, corporate jets are now authorized to use the airport within our standard PPR Permit system. See our website for more information. AvPORTS is the airfield management operator and a full service FBO. Fly NUQ!
 
NATA Safety 1st   U.S. Customs Service   Wireless Internet Access (WiFi)   National Business Aviation Association  
 
More info about AvPORTS Moffett Field
Ascent
Jet A
FS $5.67 
GUARANTEED
 
   write
FS=Full service
Update Fuel Prices
 

Would you like to see your business listed on this page?

 If your business provides an interesting product or service to pilots, flight crews, aircraft, or users of the Moffett Federal Airfield, you should consider listing it here.  To start the listing process, click on the button below
 
Add a business
 

Other Pages about Moffett Federal Airfield

ccf.arc.nasa.gov/...
Moffett Users page
Save Hangar One Committee
 
Update a link
 
Copyright © AirNav, LLC. All rights reserved. Privacy Policy  Contact